createdAt,value
2023-03-06T00:54:54.757Z,29.93
2023-03-06T00:55:55.716Z,29.13
2023-03-06T00:56:55.708Z,29.02
2023-03-06T00:57:55.718Z,28.97
2023-03-06T00:58:55.700Z,28.92
2023-03-06T00:59:55.680Z,28.88
2023-03-06T01:00:55.734Z,28.80
2023-03-06T01:01:55.739Z,28.72
2023-03-06T01:02:55.659Z,28.70
2023-03-06T01:03:55.713Z,28.62
2023-03-06T01:04:55.677Z,28.56
2023-03-06T01:05:55.678Z,28.52
2023-03-06T01:06:55.678Z,28.46
2023-03-06T01:07:55.634Z,28.42
2023-03-06T01:08:55.678Z,28.37
2023-03-06T01:09:55.589Z,28.32
2023-03-06T01:10:55.607Z,28.32
2023-03-06T01:11:55.578Z,28.22
2023-03-06T01:12:55.576Z,28.20
2023-03-06T01:13:55.559Z,28.15
2023-03-06T01:14:55.558Z,28.11
2023-03-06T01:15:55.541Z,28.09
2023-03-06T01:16:55.543Z,28.05
2023-03-06T01:17:55.542Z,28.02
2023-03-06T01:18:55.512Z,28.01
2023-03-06T01:19:55.509Z,27.93
2023-03-06T01:20:55.492Z,27.93
2023-03-06T01:21:55.488Z,27.88
2023-03-06T01:22:55.471Z,27.84
2023-03-06T01:23:55.474Z,27.83
2023-03-06T01:24:55.462Z,27.81
2023-03-06T01:25:55.451Z,27.76
2023-03-06T01:26:55.475Z,27.75
2023-03-06T01:27:55.438Z,27.77
2023-03-06T01:28:55.426Z,27.69
2023-03-06T01:29:55.414Z,27.69
2023-03-06T01:30:55.405Z,27.67
2023-03-06T01:31:55.568Z,27.64
2023-03-06T01:32:55.395Z,27.60
2023-03-06T01:33:55.384Z,27.57
2023-03-06T01:34:55.375Z,27.54
2023-03-06T01:35:55.435Z,27.53
2023-03-06T01:36:55.360Z,27.49
2023-03-06T02:41:54.811Z,26.32
2023-03-06T02:44:54.804Z,26.32
2023-03-06T03:54:54.182Z,25.97
2023-03-06T04:36:53.822Z,26.13
2023-03-06T05:12:53.524Z,26.13
2023-03-06T05:13:53.504Z,26.13
2023-03-06T05:14:53.497Z,26.14
2023-03-06T05:15:53.489Z,26.12
2023-03-06T05:16:53.483Z,26.09
2023-03-06T05:17:53.473Z,26.11
2023-03-06T05:18:53.468Z,26.09
2023-03-06T05:19:53.452Z,26.09
2023-03-06T05:20:53.454Z,26.06
2023-03-06T05:21:53.445Z,26.09
2023-03-06T05:22:53.429Z,26.07
2023-03-06T05:23:53.420Z,26.09
2023-03-06T05:24:53.414Z,26.08
2023-03-06T05:25:53.411Z,26.09
2023-03-06T05:26:53.421Z,26.06
2023-03-06T05:27:53.396Z,26.10
2023-03-06T05:28:53.377Z,26.10
2023-03-06T05:29:53.382Z,26.09
2023-03-06T05:30:53.371Z,26.11
2023-03-06T05:31:53.407Z,26.13
2023-03-06T05:32:53.392Z,26.13
2023-03-06T05:33:53.337Z,26.12
2023-03-06T05:34:53.335Z,26.11
2023-03-06T05:35:53.368Z,26.10
2023-03-06T05:36:53.316Z,26.12
2023-03-06T05:37:53.306Z,26.11
2023-03-06T05:38:53.298Z,26.11
2023-03-06T05:39:53.292Z,26.13
2023-03-06T05:40:53.289Z,26.14
2023-03-06T05:41:53.275Z,26.13
2023-03-06T05:42:53.292Z,26.13
2023-03-06T05:43:53.255Z,26.16
2023-03-06T05:44:53.249Z,26.15
2023-03-06T05:45:53.288Z,26.17
2023-03-06T05:46:53.230Z,26.15
2023-03-06T05:47:53.224Z,26.16
2023-03-06T05:48:53.220Z,26.15
2023-03-06T05:49:53.213Z,26.16
2023-03-06T05:50:53.200Z,26.17
2023-03-06T05:51:53.191Z,26.16
2023-03-06T05:52:53.185Z,26.18
2023-03-06T05:53:53.179Z,26.17
2023-03-06T05:54:53.172Z,26.20
2023-03-06T05:55:53.161Z,26.20
2023-03-06T05:56:53.154Z,26.21
2023-03-06T05:57:53.141Z,26.19
2023-03-06T05:58:53.162Z,26.20
2023-03-06T05:59:53.119Z,26.23
2023-03-06T06:00:53.108Z,26.21
2023-03-06T06:01:53.109Z,26.22
2023-03-06T06:02:53.095Z,26.23
2023-03-06T06:03:53.197Z,26.24
2023-03-06T06:04:53.087Z,26.24
2023-03-06T06:05:53.073Z,26.25
2023-03-06T06:06:53.056Z,26.25
2023-03-06T06:07:53.059Z,26.24
2023-03-06T06:08:53.055Z,26.22
2023-03-06T06:09:53.046Z,26.14
2023-03-06T06:10:53.531Z,26.10
2023-03-06T06:11:53.018Z,26.01
2023-03-06T06:12:53.010Z,25.80
2023-03-06T06:13:52.999Z,25.75
2023-03-06T06:14:53.021Z,25.60
2023-03-06T06:15:53.017Z,25.58
2023-03-06T06:16:53.945Z,25.40
2023-03-06T06:17:52.974Z,25.47
2023-03-06T06:18:52.979Z,25.45
2023-03-06T06:19:52.953Z,25.84
2023-03-06T06:20:54.950Z,26.37
2023-03-06T06:21:52.943Z,26.58
2023-03-06T06:22:53.409Z,26.59
2023-03-06T06:23:52.910Z,26.81
2023-03-06T06:24:52.904Z,26.81
2023-03-06T06:25:52.900Z,26.84
2023-03-06T06:26:52.895Z,27.17
2023-03-06T06:27:52.891Z,27.38
2023-03-06T06:28:52.924Z,27.37
2023-03-06T06:29:52.871Z,27.31
2023-03-06T06:30:52.922Z,27.35
2023-03-06T06:31:52.846Z,27.45
2023-03-06T06:32:52.835Z,27.45
2023-03-06T06:33:52.829Z,27.56
2023-03-06T06:34:52.855Z,27.59
2023-03-06T06:35:53.101Z,27.63
2023-03-06T06:36:53.635Z,27.68
2023-03-06T06:37:52.812Z,27.73
2023-03-06T06:38:52.792Z,27.88
2023-03-06T06:39:52.790Z,27.90
2023-03-06T06:41:26.748Z,27.85
2023-03-06T06:42:06.323Z,27.92
2023-03-06T06:42:52.755Z,28.01
2023-03-06T06:43:52.914Z,28.13
2023-03-06T06:44:52.745Z,28.17
2023-03-06T06:45:55.749Z,28.06
2023-03-06T06:47:22.438Z,28.14
2023-03-06T06:47:52.754Z,28.28
2023-03-06T06:48:52.726Z,28.97
2023-03-06T06:49:53.042Z,28.81
2023-03-06T06:50:52.683Z,28.70
2023-03-06T06:51:52.950Z,28.87
2023-03-06T06:52:52.691Z,28.78
2023-03-06T06:53:52.667Z,29.08
2023-03-06T06:54:52.914Z,29.34
2023-03-06T06:55:52.665Z,29.29
2023-03-06T06:56:52.651Z,29.28
2023-03-06T06:57:52.645Z,29.22
2023-03-06T06:58:52.627Z,29.14
2023-03-06T06:59:54.066Z,29.00
2023-03-06T07:00:52.789Z,28.95
2023-03-06T07:01:53.253Z,28.87
2023-03-06T07:02:52.750Z,28.70
2023-03-06T07:03:52.753Z,28.64
2023-03-06T07:05:03.591Z,28.63
2023-03-06T07:05:52.696Z,28.75
2023-03-06T07:06:52.939Z,28.63
2023-03-06T07:08:52.672Z,28.58
2023-03-06T07:09:52.665Z,28.53
2023-03-06T07:10:52.846Z,28.46
2023-03-06T07:13:08.237Z,28.44
2023-03-06T07:13:52.640Z,28.43
2023-03-06T07:14:52.649Z,28.37
2023-03-06T07:15:52.740Z,28.39
2023-03-06T07:16:52.942Z,28.35
2023-03-06T07:17:52.943Z,28.27
2023-03-06T07:18:52.619Z,28.20
2023-03-06T07:19:52.591Z,28.22
2023-03-06T07:20:52.931Z,28.31
2023-03-06T07:21:52.566Z,28.31
2023-03-06T07:22:52.554Z,28.30
2023-03-06T07:23:52.574Z,28.23
2023-03-06T07:24:52.532Z,28.20
2023-03-06T07:25:52.942Z,28.21
2023-03-06T07:26:52.531Z,28.24
2023-03-06T07:27:53.927Z,28.25
2023-03-06T07:30:53.052Z,28.23
2023-03-06T07:37:52.937Z,28.32
2023-03-06T07:39:52.965Z,28.35
2023-03-06T07:47:52.948Z,28.32
2023-03-06T08:00:52.445Z,28.67
2023-03-06T08:02:52.533Z,28.75
2023-03-06T08:05:53.039Z,28.82
2023-03-06T08:07:52.457Z,28.85
2023-03-06T08:12:52.466Z,29.04
2023-03-06T08:16:52.627Z,29.13
2023-03-06T08:17:52.498Z,29.19
2023-03-06T08:21:52.476Z,29.24
2023-03-06T08:22:52.522Z,29.26
2023-03-06T08:26:52.250Z,29.31
2023-03-06T08:27:52.478Z,29.33
2023-03-06T08:28:52.231Z,29.32
2023-03-06T08:29:52.219Z,29.37
2023-03-06T08:30:53.216Z,29.36
2023-03-06T08:31:52.278Z,29.38
2023-03-06T08:32:52.487Z,29.40
2023-03-06T08:33:53.203Z,29.41
2023-03-06T08:34:52.181Z,29.41
2023-03-06T08:35:52.199Z,29.61
2023-03-06T08:36:52.157Z,29.66
2023-03-06T08:37:52.471Z,29.76
2023-03-06T08:38:52.178Z,29.70
2023-03-06T08:40:52.473Z,29.09
2023-03-06T08:43:53.456Z,28.70
2023-03-06T08:46:52.456Z,27.29
2023-03-06T08:49:52.483Z,26.85
2023-03-06T08:53:52.477Z,26.61
2023-03-06T08:56:55.162Z,26.08
2023-03-06T09:04:52.173Z,27.64
2023-03-06T09:41:51.985Z,31.48
2023-03-06T12:15:07.963Z,32.40
2023-03-06T12:16:08.659Z,31.92
2023-03-06T12:17:08.621Z,31.70
2023-03-06T12:18:08.677Z,31.38
2023-03-06T12:19:08.961Z,31.18
2023-03-06T12:20:08.980Z,31.02
2023-03-06T12:21:09.286Z,31.20
2023-03-06T12:22:10.621Z,30.81
2023-03-06T12:23:15.343Z,30.98
2023-03-06T12:24:08.564Z,31.05
2023-03-06T12:25:08.561Z,30.97
2023-03-06T12:26:08.547Z,30.90
2023-03-06T12:27:08.963Z,30.79
2023-03-06T12:28:08.522Z,31.00
2023-03-06T12:29:09.039Z,31.03
2023-03-06T12:30:08.507Z,31.21
2023-03-06T12:31:08.534Z,31.16
2023-03-06T12:32:08.760Z,31.18
2023-03-06T12:33:08.501Z,31.18
2023-03-06T12:34:08.988Z,31.02
2023-03-06T12:35:08.459Z,30.91
2023-03-06T12:36:08.460Z,30.94
2023-03-06T12:37:08.509Z,30.97
2023-03-06T12:38:08.458Z,31.02
2023-03-06T12:39:08.428Z,31.15
2023-03-06T12:40:08.418Z,31.22
2023-03-06T12:41:08.479Z,31.22
2023-03-06T12:42:11.496Z,31.19
2023-03-06T12:43:08.634Z,31.22
2023-03-06T12:44:09.009Z,31.10
2023-03-06T12:45:08.464Z,31.19
2023-03-06T12:46:08.448Z,30.12
2023-03-06T12:47:08.364Z,29.16
2023-03-06T12:48:08.343Z,29.30
2023-03-06T12:49:08.334Z,29.52
2023-03-06T12:50:08.464Z,29.37
2023-03-06T12:51:08.326Z,29.44
2023-03-06T12:52:08.911Z,29.58
2023-03-06T12:53:08.311Z,29.67
2023-03-06T12:54:08.320Z,29.91
2023-03-06T12:55:08.547Z,29.96
2023-03-06T12:56:08.318Z,29.84
2023-03-06T12:57:08.284Z,29.50
2023-03-06T12:58:08.262Z,29.44
2023-03-06T12:59:08.273Z,29.28
2023-03-06T13:00:08.556Z,29.26
2023-03-06T13:01:08.563Z,29.39
2023-03-06T13:02:08.301Z,29.47
2023-03-06T13:03:08.479Z,29.49
2023-03-06T13:04:08.218Z,29.35
2023-03-06T13:05:08.210Z,29.33
2023-03-06T13:06:08.194Z,29.11
2023-03-06T13:07:08.189Z,29.27
2023-03-06T13:08:08.478Z,29.39
2023-03-06T13:09:08.284Z,29.24
2023-03-06T13:10:08.197Z,29.60
2023-03-06T13:11:08.683Z,29.33
2023-03-06T13:12:08.153Z,29.44
2023-03-06T13:13:08.481Z,29.51
2023-03-06T13:14:08.130Z,29.63
2023-03-06T13:15:08.126Z,29.66
2023-03-06T13:16:08.121Z,29.84
2023-03-06T13:17:08.105Z,30.06
2023-03-06T13:18:08.104Z,30.27
2023-03-06T13:19:08.483Z,30.32
2023-03-06T13:20:08.080Z,30.28
2023-03-06T13:21:08.074Z,30.39
2023-03-06T13:22:09.011Z,30.43
2023-03-06T13:53:07.072Z,31.26
2023-03-06T13:54:08.087Z,31.08
2023-03-06T13:55:07.988Z,31.05
2023-03-06T13:56:08.340Z,31.01
2023-03-06T13:57:07.974Z,30.31
2023-03-06T13:58:07.940Z,29.88
2023-03-06T13:59:08.333Z,29.95
2023-03-06T14:00:10.083Z,29.84
2023-03-06T14:01:08.983Z,30.01
2023-03-06T14:02:08.829Z,29.93
2023-03-06T14:03:07.913Z,30.11
2023-03-06T14:04:08.338Z,30.42
2023-03-06T14:05:07.878Z,30.35
2023-03-06T14:06:07.872Z,30.46
2023-03-06T14:07:07.858Z,30.59
2023-03-06T14:08:07.856Z,31.01
2023-03-06T14:09:08.632Z,31.11
2023-03-06T14:10:08.633Z,31.25
2023-03-06T14:11:08.599Z,31.35
2023-03-06T14:12:08.277Z,31.35
2023-03-06T14:13:08.235Z,31.39
2023-03-06T14:14:07.888Z,31.38
2023-03-06T14:15:08.221Z,31.34
2023-03-06T14:16:08.151Z,31.49
2023-03-06T14:17:07.789Z,31.55
2023-03-06T14:18:07.775Z,31.58
2023-03-06T14:19:07.971Z,31.55
2023-03-06T14:20:07.845Z,31.71
2023-03-06T14:21:07.737Z,31.72
2023-03-06T14:22:07.724Z,31.71
2023-03-06T14:23:07.718Z,31.70
2023-03-06T14:24:07.867Z,31.81
2023-03-06T14:25:07.734Z,31.87
2023-03-06T14:26:07.685Z,31.74
2023-03-06T14:27:07.696Z,31.43
2023-03-06T14:28:14.108Z,31.54
2023-03-06T14:29:07.716Z,31.50
2023-03-06T14:30:07.840Z,31.57
2023-03-06T14:31:07.664Z,31.67
2023-03-06T14:32:07.669Z,31.72
2023-03-06T14:33:07.629Z,31.84
2023-03-06T14:34:07.633Z,31.32
2023-03-06T14:35:07.858Z,30.90
2023-03-06T14:36:07.608Z,30.05
2023-03-06T14:37:07.845Z,29.18
2023-03-06T14:38:07.584Z,29.49
2023-03-06T14:39:07.577Z,28.51
2023-03-06T14:40:07.848Z,28.89
2023-03-06T14:41:07.598Z,28.82
2023-03-06T14:42:07.559Z,28.63
2023-03-06T14:43:07.542Z,27.74
2023-03-06T14:44:07.533Z,27.43
2023-03-06T14:45:07.856Z,27.58
2023-03-06T14:46:07.545Z,27.45
2023-03-06T14:47:07.508Z,26.91
2023-03-06T14:48:07.499Z,26.99
2023-03-06T14:49:07.499Z,26.64
2023-03-06T14:50:07.496Z,26.43
2023-03-06T14:51:07.869Z,26.60
2023-03-06T14:52:07.486Z,26.51
2023-03-06T14:53:07.860Z,26.96
2023-03-06T14:54:07.458Z,26.83
2023-03-06T14:55:07.442Z,26.88
2023-03-06T14:56:07.440Z,27.23
2023-03-06T14:57:07.453Z,26.73
2023-03-06T14:58:07.422Z,26.99
2023-03-06T14:59:07.408Z,26.59
2023-03-06T15:00:07.396Z,27.03
2023-03-06T15:01:07.386Z,27.31
2023-03-06T15:02:07.396Z,27.23
2023-03-06T15:03:07.531Z,27.16
2023-03-06T15:04:07.373Z,26.85
2023-03-06T15:05:07.352Z,27.19
2023-03-06T15:06:07.378Z,27.42
2023-03-06T15:07:07.367Z,27.19
2023-03-06T15:08:07.340Z,27.46
2023-03-06T15:09:08.149Z,27.40
2023-03-06T15:10:07.317Z,27.14
2023-03-06T15:11:07.343Z,27.11
2023-03-06T15:12:07.318Z,27.22
2023-03-06T15:13:07.339Z,27.19
2023-03-06T15:14:07.303Z,27.18
2023-03-06T15:15:07.289Z,27.41
2023-03-06T15:16:07.341Z,27.18
2023-03-06T15:17:07.361Z,27.25
2023-03-06T15:18:07.245Z,27.22
2023-03-06T15:19:07.363Z,26.93
2023-03-06T15:20:07.221Z,26.64
2023-03-06T15:21:07.214Z,26.37
2023-03-06T15:22:07.204Z,26.96
2023-03-06T15:23:07.194Z,26.75
2023-03-06T15:24:07.371Z,26.86
2023-03-06T15:25:07.362Z,26.77
2023-03-06T15:26:07.172Z,26.95
2023-03-06T15:27:07.160Z,27.20
2023-03-06T15:28:07.156Z,26.99
2023-03-06T15:29:10.023Z,26.62
2023-03-06T15:30:07.137Z,26.46
2023-03-06T15:31:07.129Z,26.22
2023-03-06T15:32:07.147Z,26.06
2023-03-06T15:33:07.110Z,25.82
2023-03-06T15:34:07.422Z,26.23
2023-03-06T15:35:07.093Z,26.53
2023-03-06T15:36:07.099Z,26.64
2023-03-06T15:37:07.080Z,26.86
2023-03-06T15:38:07.064Z,26.78
2023-03-06T15:39:07.390Z,26.93
2023-03-06T15:40:07.396Z,27.11
2023-03-06T15:41:07.047Z,27.39
2023-03-06T15:42:07.036Z,27.59
2023-03-06T15:43:07.030Z,27.89
2023-03-06T15:44:07.377Z,27.87
2023-03-06T15:45:07.042Z,27.86
2023-03-06T15:46:07.134Z,27.92
2023-03-06T15:47:09.170Z,27.88
2023-03-06T15:48:07.291Z,28.21
2023-03-06T15:49:07.011Z,28.70
2023-03-06T15:50:07.408Z,31.06
2023-03-06T15:51:07.097Z,30.36
2023-03-06T15:52:06.954Z,32.69
2023-03-06T15:53:06.944Z,32.96
2023-03-06T15:54:12.352Z,33.51
2023-03-06T15:55:06.931Z,34.01
2023-03-06T15:56:06.917Z,33.91
2023-03-06T15:57:06.930Z,33.91
2023-03-06T15:58:06.899Z,33.74
2023-03-06T15:59:06.897Z,33.66
2023-03-06T16:00:10.832Z,33.74
2023-03-06T16:01:06.994Z,33.89
2023-03-06T16:02:06.873Z,33.88
2023-03-06T16:03:06.881Z,33.95
2023-03-06T16:04:06.853Z,33.80
2023-03-06T16:05:06.856Z,33.70
2023-03-06T16:06:06.883Z,33.66
2023-03-06T16:07:06.855Z,33.54
2023-03-06T16:08:06.821Z,33.36
2023-03-06T16:09:06.816Z,33.39
2023-03-06T16:10:06.809Z,33.35
2023-03-06T16:11:06.800Z,33.28
2023-03-06T16:12:06.785Z,33.36
2023-03-06T16:13:06.770Z,33.29
2023-03-06T16:14:06.766Z,33.24
2023-03-06T16:15:06.889Z,33.20
2023-03-06T16:16:06.754Z,33.14
2023-03-06T16:17:06.766Z,33.05
2023-03-06T16:18:06.737Z,33.00
2023-03-06T16:19:09.460Z,32.98
2023-03-06T16:20:06.760Z,32.96
2023-03-06T16:21:06.718Z,32.90
2023-03-06T16:22:06.699Z,32.88
2023-03-06T16:23:06.731Z,32.83
2023-03-06T16:24:06.689Z,32.80
2023-03-06T16:25:06.671Z,32.70
2023-03-06T16:26:06.921Z,32.69
2023-03-06T16:27:06.668Z,32.65
2023-03-06T16:28:06.650Z,32.58
2023-03-06T16:29:06.636Z,32.55
2023-03-06T16:30:06.630Z,32.51
2023-03-06T16:31:06.716Z,32.54
2023-03-06T16:32:06.626Z,32.49
2023-03-06T16:33:06.636Z,32.49
2023-03-06T16:34:06.594Z,32.41
2023-03-06T16:35:06.590Z,32.39
2023-03-06T16:36:06.579Z,32.40
2023-03-06T16:37:06.574Z,32.36
2023-03-06T16:38:06.571Z,32.30
2023-03-06T16:39:06.548Z,32.24
2023-03-06T16:40:06.537Z,32.27
2023-03-06T16:41:06.537Z,32.28
2023-03-06T16:42:06.535Z,32.24
2023-03-06T16:43:06.521Z,32.23
2023-03-06T16:44:06.508Z,32.20
2023-03-06T16:45:06.508Z,32.20
2023-03-06T16:46:06.593Z,32.19
2023-03-06T16:47:06.481Z,32.17
2023-03-06T16:48:06.477Z,32.15
2023-03-06T16:49:06.497Z,32.13
2023-03-06T16:50:06.458Z,32.08
2023-03-06T16:51:06.455Z,32.03
2023-03-06T16:52:06.445Z,32.07
2023-03-06T16:53:06.465Z,32.02
2023-03-06T16:54:06.429Z,32.02
2023-03-06T16:55:06.417Z,32.00
2023-03-06T16:56:06.409Z,32.04
2023-03-06T16:57:06.402Z,31.98
2023-03-06T16:58:06.400Z,31.96
2023-03-06T16:59:06.392Z,31.96
2023-03-06T17:00:06.392Z,31.98
2023-03-06T17:01:06.409Z,31.98
2023-03-06T17:02:06.365Z,31.94
2023-03-06T17:03:06.353Z,31.89
2023-03-06T17:04:06.355Z,31.90
2023-03-06T17:05:06.368Z,31.89
2023-03-06T17:06:06.330Z,31.90
2023-03-06T17:07:06.321Z,31.85
2023-03-06T17:08:06.311Z,31.82
2023-03-06T17:09:06.312Z,31.82
2023-03-06T17:10:06.304Z,31.80
2023-03-06T17:11:06.284Z,31.80
2023-03-06T17:12:06.285Z,31.80
2023-03-06T17:13:06.269Z,31.70
2023-03-06T17:14:06.302Z,31.73
2023-03-06T17:15:06.255Z,31.73
2023-03-06T17:16:06.254Z,31.70
2023-03-06T17:17:06.241Z,31.70
2023-03-06T17:18:06.239Z,31.71
2023-03-06T17:19:06.222Z,31.70
2023-03-06T17:20:06.215Z,31.69
2023-03-06T17:21:06.232Z,31.69
2023-03-06T17:22:06.193Z,31.69
2023-03-06T17:23:06.199Z,31.64
2023-03-06T17:24:06.177Z,31.66
2023-03-06T17:25:06.169Z,31.67
2023-03-06T17:26:06.162Z,31.66
2023-03-06T17:27:06.160Z,31.68
2023-03-06T17:28:06.146Z,31.67
2023-03-06T17:29:07.209Z,31.67
2023-03-06T17:30:06.151Z,31.71
2023-03-06T17:31:06.134Z,31.64
2023-03-06T17:32:06.162Z,31.62
2023-03-06T17:33:06.113Z,31.60
2023-03-06T17:34:06.102Z,31.59
2023-03-06T17:35:06.106Z,31.61
2023-03-06T17:36:06.092Z,31.60
2023-03-06T17:37:06.142Z,31.60
2023-03-06T17:38:06.063Z,31.56
2023-03-06T17:39:06.049Z,31.54
2023-03-06T17:40:06.045Z,31.56
2023-03-06T17:41:06.043Z,31.52
2023-03-06T17:42:06.027Z,31.50
2023-03-06T17:43:06.014Z,31.55
2023-03-06T17:44:06.007Z,31.54
2023-03-06T17:45:06.001Z,31.56
2023-03-06T17:46:06.143Z,31.56
2023-03-06T17:47:05.981Z,31.52
2023-03-06T17:48:05.977Z,31.50
2023-03-06T17:49:05.968Z,31.49
2023-03-06T17:50:05.977Z,31.48
2023-03-06T18:33:05.589Z,31.03
2023-03-06T18:34:05.591Z,31.05
2023-03-06T18:35:05.577Z,31.05
2023-03-06T18:36:05.562Z,31.05
2023-03-06T18:37:05.591Z,31.02
2023-03-06T18:38:05.563Z,31.02
2023-03-06T18:39:05.541Z,31.01
2023-03-06T18:40:05.541Z,31.02
2023-03-06T18:41:05.547Z,31.01
2023-03-06T18:42:05.514Z,31.01
2023-03-06T18:43:05.504Z,30.99
2023-03-06T18:44:05.507Z,31.01
2023-03-06T18:45:05.489Z,30.99
2023-03-06T18:46:05.568Z,31.00
2023-03-06T18:47:05.472Z,30.98
2023-03-06T18:48:05.459Z,30.96
2023-03-06T18:49:05.475Z,30.98
2023-03-06T18:50:05.442Z,30.98
2023-03-06T18:51:05.437Z,30.97
2023-03-06T18:52:05.430Z,30.95
2023-03-06T18:53:05.425Z,30.95
2023-03-06T18:54:05.415Z,30.97
2023-03-06T18:55:05.406Z,30.96
2023-03-06T18:56:05.422Z,30.96
2023-03-06T18:57:05.425Z,30.95
2023-03-06T18:58:05.402Z,30.95
2023-03-06T18:59:05.376Z,30.96
2023-03-06T19:00:05.388Z,30.93
2023-03-06T19:01:05.401Z,30.95
2023-03-06T19:02:05.347Z,30.93
2023-03-06T19:03:05.331Z,30.92
2023-03-06T19:04:05.398Z,30.90
2023-03-06T19:05:05.325Z,30.90
2023-03-06T19:06:05.315Z,30.92
2023-03-06T19:07:05.308Z,30.93
2023-03-06T19:08:05.304Z,30.93
2023-03-06T19:09:05.307Z,30.93
2023-03-06T19:10:05.275Z,30.91
2023-03-06T19:11:05.282Z,30.91
2023-03-06T19:12:05.280Z,30.91
2023-03-06T19:13:05.289Z,30.90
2023-03-06T19:14:05.255Z,30.90
2023-03-06T19:15:05.247Z,30.92
2023-03-06T19:16:05.534Z,30.93
2023-03-06T19:17:05.218Z,30.90
2023-03-06T19:18:05.215Z,30.89
2023-03-06T19:19:05.202Z,30.90
2023-03-06T19:20:05.208Z,30.89
2023-03-06T19:21:05.187Z,30.88
2023-03-06T19:22:05.189Z,30.90
2023-03-06T19:23:05.179Z,30.90
2023-03-06T19:24:05.159Z,30.86
2023-03-06T19:25:05.157Z,30.84
2023-03-06T19:26:05.142Z,30.85
2023-03-06T19:27:05.140Z,30.86
2023-03-06T19:28:05.128Z,30.84
2023-03-06T19:29:05.157Z,30.83
2023-03-06T19:30:05.115Z,30.82
2023-03-06T19:31:05.104Z,30.82
2023-03-06T19:32:05.242Z,30.86
2023-03-06T19:33:05.088Z,30.83
2023-03-06T19:34:05.086Z,30.80
2023-03-06T19:35:05.116Z,30.84
2023-03-06T19:36:05.106Z,30.80
2023-03-06T19:37:05.053Z,30.82
2023-03-06T19:38:05.041Z,30.80
2023-03-06T19:39:05.059Z,30.80
2023-03-06T19:40:05.026Z,30.78
2023-03-06T19:41:05.038Z,30.78
2023-03-06T19:42:05.026Z,30.78
2023-03-06T19:43:05.007Z,30.78
2023-03-06T19:44:05.052Z,30.78
2023-03-06T19:45:05.009Z,30.79
2023-03-06T19:46:05.027Z,30.77
2023-03-06T19:47:04.983Z,30.75
2023-03-06T19:48:04.963Z,30.74
2023-03-06T19:49:04.951Z,30.72
2023-03-06T19:50:04.967Z,30.72
2023-03-06T19:51:04.931Z,30.74
2023-03-06T19:52:04.928Z,30.74
2023-03-06T19:53:04.911Z,30.73
2023-03-06T19:54:04.905Z,30.75
2023-03-06T19:55:04.949Z,30.74
2023-03-06T19:56:04.890Z,30.76
2023-03-06T19:57:04.888Z,30.77
2023-03-06T19:58:04.873Z,30.74
2023-03-06T19:59:04.868Z,30.74
2023-03-06T20:00:04.856Z,30.72
2023-03-06T20:01:04.928Z,30.72
2023-03-06T20:02:04.834Z,30.72
2023-03-06T20:03:04.826Z,30.73
2023-03-06T20:04:04.829Z,30.73
2023-03-06T20:05:04.810Z,30.73
2023-03-06T20:06:04.810Z,30.70
2023-03-06T20:07:04.822Z,30.71
2023-03-06T20:08:04.790Z,30.69
2023-03-06T20:09:04.777Z,30.69
2023-03-06T20:10:04.773Z,30.69
2023-03-06T20:11:04.762Z,30.69
2023-03-06T20:12:07.754Z,30.68
2023-03-06T20:13:04.742Z,30.67
2023-03-06T20:14:04.747Z,30.68
2023-03-06T20:15:04.725Z,30.66
2023-03-06T20:16:04.810Z,30.64
2023-03-06T20:17:04.731Z,30.66
2023-03-06T20:18:04.695Z,30.67
2023-03-06T20:19:04.688Z,30.65
2023-03-06T20:20:04.693Z,30.64
2023-03-06T20:21:04.669Z,30.64
2023-03-06T20:22:04.661Z,30.68
2023-03-06T20:23:04.643Z,30.64
2023-03-06T20:24:04.641Z,30.64
2023-03-06T20:25:04.631Z,30.61
2023-03-06T20:26:04.624Z,30.62
2023-03-06T20:27:04.620Z,30.62
2023-03-06T20:28:04.615Z,30.62
2023-03-06T20:29:04.597Z,30.60
2023-03-06T20:30:07.006Z,30.62
2023-03-06T20:31:04.599Z,30.61
2023-03-06T20:32:04.641Z,30.61
2023-03-06T20:33:04.589Z,30.59
2023-03-06T20:34:04.553Z,30.59
2023-03-06T20:35:04.543Z,30.60
2023-03-06T20:36:04.595Z,30.62
2023-03-06T20:37:04.528Z,30.58
2023-03-06T20:38:04.514Z,30.57
2023-03-06T20:39:04.507Z,30.58
2023-03-06T20:40:04.532Z,30.57
2023-03-06T20:41:04.493Z,30.56
2023-03-06T20:42:04.495Z,30.57
2023-03-06T20:43:04.471Z,30.55
2023-03-06T20:44:04.496Z,30.55
2023-03-06T20:45:04.459Z,30.54
2023-03-06T20:46:04.490Z,30.55
2023-03-06T20:47:04.447Z,30.57
2023-03-06T20:48:04.445Z,30.54
2023-03-06T20:49:04.456Z,30.56
2023-03-06T20:50:04.423Z,30.53
2023-03-06T20:51:04.418Z,30.55
2023-03-06T20:52:04.399Z,30.55
2023-03-06T20:53:04.397Z,30.52
2023-03-06T20:54:04.392Z,30.54
2023-03-06T20:55:04.378Z,30.53
2023-03-06T20:56:04.374Z,30.51
2023-03-06T20:57:04.357Z,30.51
2023-03-06T20:58:04.351Z,30.55
2023-03-06T20:59:04.337Z,30.56
2023-03-06T21:00:04.335Z,30.54
2023-03-06T21:01:04.325Z,30.52
2023-03-06T21:02:04.353Z,30.54
2023-03-06T21:03:04.308Z,30.51
2023-03-06T21:04:04.309Z,30.50
2023-03-06T21:05:04.549Z,30.50
2023-03-06T21:06:04.280Z,30.50
2023-03-06T21:07:04.273Z,30.49
2023-03-06T21:08:04.275Z,30.49
2023-03-06T21:09:04.266Z,30.46
2023-03-06T21:10:04.254Z,30.49
2023-03-06T21:11:04.243Z,30.46
2023-03-06T21:12:04.235Z,30.45
2023-03-06T21:13:04.230Z,30.45
2023-03-06T21:14:04.244Z,30.46
2023-03-06T21:15:04.228Z,30.45
2023-03-06T21:16:04.228Z,30.43
2023-03-06T21:17:04.239Z,30.46
2023-03-06T21:18:04.224Z,30.43
2023-03-06T21:19:04.180Z,30.43
2023-03-06T21:20:04.222Z,30.45
2023-03-06T21:21:04.231Z,30.42
2023-03-06T21:22:04.154Z,30.43
2023-03-06T21:23:04.201Z,30.43
2023-03-06T21:24:04.135Z,30.42
2023-03-06T21:25:04.134Z,30.44
2023-03-06T21:26:04.121Z,30.41
2023-03-06T21:27:04.114Z,30.44
2023-03-06T21:28:04.104Z,30.41
2023-03-06T21:29:04.093Z,30.42
2023-03-06T21:30:04.091Z,30.43
2023-03-06T21:31:04.173Z,30.41
2023-03-06T21:32:04.194Z,30.40
2023-03-06T22:23:03.644Z,30.29
2023-03-06T22:24:03.634Z,30.30
2023-03-06T22:25:03.659Z,30.29
2023-03-06T22:26:03.630Z,30.28
2023-03-06T22:27:03.621Z,30.30
2023-03-06T22:28:03.605Z,30.29
2023-03-06T22:29:03.602Z,30.28
2023-03-06T22:30:03.587Z,30.29
2023-03-06T22:31:03.586Z,30.29
2023-03-06T22:32:03.701Z,30.29
2023-03-06T22:33:03.562Z,30.28
2023-03-06T22:34:04.515Z,30.27
2023-03-06T22:35:03.548Z,30.29
2023-03-06T22:36:03.558Z,30.27
2023-03-06T22:37:03.528Z,30.25
2023-03-06T22:38:03.512Z,30.26
2023-03-06T22:39:03.525Z,30.26
2023-03-06T22:40:03.502Z,30.28
2023-03-06T22:41:03.517Z,30.27
2023-03-06T22:42:03.528Z,30.26
2023-03-06T22:43:03.476Z,30.26
2023-03-06T22:44:03.471Z,30.25
2023-03-06T22:45:03.452Z,30.21
2023-03-06T22:46:03.485Z,30.23
2023-03-06T22:47:03.438Z,30.21
2023-03-06T22:48:10.909Z,30.24
2023-03-06T22:49:03.428Z,30.22
2023-03-06T22:50:03.419Z,30.21
2023-03-06T22:51:03.426Z,30.21
2023-03-06T22:52:03.401Z,30.20
2023-03-06T22:53:03.432Z,30.19
2023-03-06T22:54:03.382Z,30.16
2023-03-06T22:55:03.369Z,30.15
2023-03-06T22:56:03.372Z,30.17
2023-03-06T22:57:03.378Z,30.17
2023-03-06T22:58:03.353Z,30.17
2023-03-06T22:59:03.341Z,30.16
2023-03-06T23:00:03.331Z,30.17
2023-03-06T23:01:03.353Z,30.17
2023-03-06T23:02:03.317Z,30.16
2023-03-06T23:03:03.314Z,30.18
2023-03-06T23:04:03.418Z,30.15
2023-03-06T23:05:03.292Z,30.18
2023-03-06T23:06:03.281Z,30.14
2023-03-06T23:07:03.274Z,30.16
2023-03-06T23:08:03.270Z,30.17
2023-03-06T23:09:03.270Z,30.16
2023-03-06T23:10:03.251Z,30.16
2023-03-06T23:11:03.243Z,30.16
2023-03-06T23:12:03.230Z,30.13
2023-03-06T23:13:04.094Z,30.12
2023-03-06T23:14:03.219Z,30.13
2023-03-06T23:15:03.206Z,30.14
2023-03-06T23:16:03.247Z,30.13
2023-03-06T23:17:03.189Z,30.10
2023-03-06T23:18:03.182Z,30.13
2023-03-06T23:19:03.179Z,30.13
2023-03-06T23:20:03.175Z,30.12
2023-03-06T23:21:03.155Z,30.10
2023-03-06T23:22:03.153Z,30.09
2023-03-06T23:23:03.216Z,30.08
2023-03-06T23:24:03.132Z,30.09
2023-03-06T23:25:03.130Z,30.08
2023-03-06T23:26:03.119Z,30.10
2023-03-06T23:27:03.109Z,30.09
2023-03-06T23:28:03.104Z,30.10
2023-03-06T23:29:03.132Z,30.07
2023-03-06T23:30:03.089Z,30.07
2023-03-06T23:31:03.157Z,30.06
2023-03-06T23:32:03.125Z,30.06
2023-03-06T23:33:03.059Z,30.05
2023-03-06T23:34:03.057Z,30.03